createdAt,value
2022-11-09T00:00:42.192Z,11.20
2022-11-09T00:03:09.423Z,11.20
2022-11-09T00:05:36.676Z,11.20
2022-11-09T00:08:07.610Z,11.20
2022-11-09T00:10:35.027Z,11.20
2022-11-09T00:13:02.299Z,11.10
2022-11-09T00:15:29.470Z,11.10
2022-11-09T00:17:56.585Z,11.10
2022-11-09T00:20:23.701Z,11.10
2022-11-09T00:22:51.024Z,11.10
2022-11-09T00:25:18.274Z,11.10
2022-11-09T00:27:45.460Z,11.00
2022-11-09T00:30:12.658Z,11.10
2022-11-09T00:32:40.029Z,11.00
2022-11-09T00:35:07.295Z,11.00
2022-11-09T00:37:34.425Z,11.00
2022-11-09T00:40:01.709Z,11.00
2022-11-09T00:42:28.797Z,11.00
2022-11-09T00:44:55.998Z,11.00
2022-11-09T00:47:23.364Z,10.90
2022-11-09T00:49:50.558Z,10.90
2022-11-09T00:52:17.795Z,10.90
2022-11-09T00:54:45.264Z,10.90
2022-11-09T00:57:13.863Z,10.80
2022-11-09T00:59:40.996Z,10.90
2022-11-09T01:02:08.180Z,10.90
2022-11-09T01:04:35.441Z,10.80
2022-11-09T01:07:02.749Z,10.80
2022-11-09T01:09:30.025Z,10.80
2022-11-09T01:11:57.252Z,10.70
2022-11-09T01:14:24.712Z,10.70
2022-11-09T01:16:51.961Z,10.70
2022-11-09T01:19:19.287Z,10.60
2022-11-09T01:21:46.553Z,10.60
2022-11-09T01:24:14.025Z,10.60
2022-11-09T01:26:41.210Z,10.60
2022-11-09T01:29:08.308Z,10.60
2022-11-09T01:31:35.438Z,10.60
2022-11-09T01:34:02.646Z,10.60
2022-11-09T01:36:30.273Z,10.60
2022-11-09T01:38:57.487Z,10.50
2022-11-09T01:41:26.264Z,10.50
2022-11-09T01:44:22.869Z,10.50
2022-11-09T01:46:56.199Z,10.50
2022-11-09T01:49:38.084Z,10.50
2022-11-09T01:52:08.383Z,10.50
2022-11-09T01:54:40.407Z,10.50
2022-11-09T01:57:10.728Z,10.50
2022-11-09T01:59:40.690Z,10.50
2022-11-09T02:02:08.032Z,10.50
2022-11-09T02:04:40.270Z,10.50
2022-11-09T02:07:07.965Z,10.50
2022-11-09T02:09:39.259Z,10.40
2022-11-09T02:12:07.347Z,10.50
2022-11-09T02:14:35.868Z,10.50
2022-11-09T02:17:03.306Z,10.50
2022-11-09T02:19:30.484Z,10.40
2022-11-09T02:21:57.818Z,10.50
2022-11-09T02:24:25.202Z,10.50
2022-11-09T02:26:53.046Z,10.50
2022-11-09T02:29:25.248Z,10.50
2022-11-09T02:32:01.005Z,10.50
2022-11-09T02:34:28.155Z,10.50
2022-11-09T02:36:55.543Z,10.40
2022-11-09T02:39:24.296Z,10.40
2022-11-09T02:42:03.416Z,10.40
2022-11-09T02:44:34.452Z,10.40
2022-11-09T02:47:01.838Z,10.40
2022-11-09T02:49:29.103Z,10.40
2022-11-09T02:51:56.145Z,10.50
2022-11-09T02:54:23.310Z,10.50
2022-11-09T02:56:50.525Z,10.40
2022-11-09T02:59:17.905Z,10.50
2022-11-09T03:01:45.119Z,10.40
2022-11-09T03:04:12.300Z,10.50
2022-11-09T03:06:39.457Z,10.40
2022-11-09T03:09:07.839Z,10.50
2022-11-09T03:11:35.116Z,10.50
2022-11-09T03:14:02.785Z,10.50
2022-11-09T03:16:30.118Z,10.40
2022-11-09T03:18:58.347Z,10.40
2022-11-09T03:21:25.548Z,10.40
2022-11-09T03:23:54.493Z,10.40
2022-11-09T03:26:22.155Z,10.40
2022-11-09T03:28:49.472Z,10.30
2022-11-09T03:31:19.117Z,10.30
2022-11-09T03:33:46.410Z,10.20
2022-11-09T03:36:13.734Z,10.30
2022-11-09T03:38:41.165Z,10.30
2022-11-09T03:41:08.321Z,10.30
2022-11-09T03:43:35.342Z,10.30
2022-11-09T03:46:02.486Z,10.30
2022-11-09T03:48:29.638Z,10.30
2022-11-09T03:50:56.828Z,10.30
2022-11-09T03:53:24.021Z,10.30
2022-11-09T03:55:51.152Z,10.20
2022-11-09T03:58:18.375Z,10.30
2022-11-09T04:00:45.514Z,10.20
2022-11-09T04:03:12.679Z,10.10
2022-11-09T04:05:39.878Z,10.10
2022-11-09T04:08:07.043Z,10.10
2022-11-09T04:10:34.498Z,10.10
2022-11-09T04:13:01.747Z,10.00
2022-11-09T04:15:28.932Z,9.90
2022-11-09T04:17:56.955Z,9.90
2022-11-09T04:20:24.531Z,9.90
2022-11-09T04:22:59.019Z,9.80
2022-11-09T04:25:26.684Z,9.70
2022-11-09T04:27:57.607Z,9.70
2022-11-09T04:30:28.233Z,9.70
2022-11-09T04:32:55.883Z,9.70
2022-11-09T04:35:23.441Z,9.70
2022-11-09T04:37:55.202Z,9.60
2022-11-09T04:40:23.013Z,9.60
2022-11-09T04:42:50.178Z,9.60
2022-11-09T04:45:17.557Z,9.60
2022-11-09T04:47:44.656Z,9.50
2022-11-09T04:50:11.836Z,9.50
2022-11-09T04:52:39.110Z,9.50
2022-11-09T04:55:06.687Z,9.40
2022-11-09T04:57:33.838Z,9.40
2022-11-09T05:00:00.949Z,9.40
2022-11-09T05:02:28.178Z,9.30
2022-11-09T05:04:55.237Z,9.30
2022-11-09T05:07:22.298Z,9.30
2022-11-09T05:09:49.358Z,9.20
2022-11-09T05:12:16.476Z,9.20
2022-11-09T05:14:43.517Z,9.20
2022-11-09T05:17:10.901Z,9.10
2022-11-09T05:19:38.011Z,9.10
2022-11-09T05:22:23.526Z,9.10
2022-11-09T05:24:52.093Z,9.10
2022-11-09T05:27:19.228Z,9.00
2022-11-09T05:29:46.279Z,9.00
2022-11-09T05:32:13.315Z,9.00
2022-11-09T05:34:40.565Z,8.90
2022-11-09T05:37:07.800Z,8.90
2022-11-09T05:39:34.818Z,9.00
2022-11-09T05:42:01.901Z,9.00
2022-11-09T05:44:29.013Z,8.90
2022-11-09T05:46:56.017Z,9.00
2022-11-09T05:49:23.180Z,9.00
2022-11-09T05:51:50.215Z,9.00
2022-11-09T05:54:17.300Z,9.00
2022-11-09T05:56:44.385Z,8.90
2022-11-09T05:59:11.434Z,8.90
2022-11-09T06:01:38.531Z,8.90
2022-11-09T06:04:05.623Z,8.90
2022-11-09T06:06:32.726Z,8.90
2022-11-09T06:08:59.822Z,8.90
2022-11-09T06:11:27.037Z,8.90
2022-11-09T06:13:54.144Z,8.90
2022-11-09T06:16:21.400Z,9.00
2022-11-09T06:18:48.519Z,8.90
2022-11-09T06:21:15.734Z,8.90
2022-11-09T06:23:42.953Z,9.00
2022-11-09T06:26:11.041Z,9.00
2022-11-09T06:28:39.132Z,9.00
2022-11-09T06:31:07.555Z,9.00
2022-11-09T06:33:35.665Z,9.00
2022-11-09T06:36:02.908Z,9.00
2022-11-09T06:38:30.049Z,9.00
2022-11-09T06:40:58.375Z,9.00
2022-11-09T06:43:25.968Z,9.10
2022-11-09T06:45:53.120Z,9.10
2022-11-09T06:48:20.749Z,9.10
2022-11-09T06:50:47.915Z,9.10
2022-11-09T06:53:15.961Z,9.10
2022-11-09T06:55:47.402Z,9.10
2022-11-09T06:58:17.464Z,9.10
2022-11-09T07:00:44.652Z,9.10
2022-11-09T07:03:15.869Z,9.20
2022-11-09T07:05:43.064Z,9.20
2022-11-09T07:08:10.684Z,9.20
2022-11-09T07:10:38.194Z,9.30
2022-11-09T07:13:06.052Z,9.30
2022-11-09T07:15:33.505Z,9.30
2022-11-09T07:18:01.405Z,9.40
2022-11-09T07:20:28.586Z,9.40
2022-11-09T07:22:55.739Z,9.40
2022-11-09T07:25:23.412Z,9.50
2022-11-09T07:27:50.677Z,9.50
2022-11-09T07:30:17.755Z,9.60
2022-11-09T07:35:32.098Z,9.70
2022-11-09T07:38:02.669Z,9.80
2022-11-09T07:40:30.506Z,9.80
2022-11-09T07:43:01.470Z,9.90
2022-11-09T07:45:29.546Z,9.90
2022-11-09T07:48:00.372Z,10.00
2022-11-09T07:50:28.698Z,10.20
2022-11-09T07:52:56.653Z,10.40
2022-11-09T07:55:24.232Z,10.40
2022-11-09T07:58:03.610Z,10.50
2022-11-09T08:00:31.922Z,10.60
2022-11-09T08:02:59.051Z,10.60
2022-11-09T08:05:26.462Z,10.70
2022-11-09T08:08:00.109Z,10.70
2022-11-09T08:10:28.102Z,10.70
2022-11-09T08:13:00.204Z,10.70
2022-11-09T08:15:27.879Z,10.60
2022-11-09T08:17:55.378Z,10.50
2022-11-09T08:20:22.616Z,10.60
2022-11-09T08:22:49.756Z,10.60
2022-11-09T08:25:16.915Z,10.50
2022-11-09T08:27:44.042Z,10.50
2022-11-09T08:30:13.229Z,10.50
2022-11-09T08:32:40.980Z,10.50
2022-11-09T08:35:10.500Z,10.50
2022-11-09T08:37:37.988Z,10.50
2022-11-09T08:40:06.130Z,10.50
2022-11-09T08:42:33.188Z,10.50
2022-11-09T08:45:00.498Z,10.40
2022-11-09T08:47:28.724Z,10.40
2022-11-09T08:49:56.359Z,10.50
2022-11-09T08:52:23.584Z,10.50
2022-11-09T08:54:50.607Z,10.50
2022-11-09T08:57:19.034Z,10.50
2022-11-09T08:59:46.635Z,10.40
2022-11-09T09:02:16.158Z,10.50
2022-11-09T09:04:45.070Z,10.50
2022-11-09T09:07:12.871Z,10.40
2022-11-09T09:09:39.996Z,10.40
2022-11-09T09:12:07.854Z,10.40
2022-11-09T09:14:35.345Z,10.50
2022-11-09T09:17:02.610Z,10.50
2022-11-09T09:19:29.867Z,10.50
2022-11-09T09:21:57.173Z,10.50
2022-11-09T09:24:24.386Z,10.60
2022-11-09T09:26:51.463Z,10.60
2022-11-09T09:29:18.633Z,10.70
2022-11-09T09:31:45.807Z,10.60
2022-11-09T09:34:13.401Z,10.70
2022-11-09T09:36:46.290Z,10.70
2022-11-09T09:39:15.187Z,10.70
2022-11-09T09:41:53.434Z,10.70
2022-11-09T09:44:32.077Z,10.80
2022-11-09T09:47:13.526Z,10.90
2022-11-09T09:49:43.452Z,10.90
2022-11-09T09:52:36.833Z,10.90
2022-11-09T09:55:04.610Z,10.90
2022-11-09T09:57:35.417Z,11.00
2022-11-09T10:00:07.556Z,10.90
2022-11-09T10:02:37.871Z,11.00
2022-11-09T10:05:09.861Z,11.20
2022-11-09T10:07:49.919Z,11.40
2022-11-09T10:10:38.452Z,11.50
2022-11-09T10:13:26.495Z,11.60
2022-11-09T10:16:01.861Z,11.90
2022-11-09T10:18:39.170Z,12.10
2022-11-09T10:21:06.327Z,12.40
2022-11-09T10:23:53.782Z,12.50
2022-11-09T10:26:40.449Z,12.50
2022-11-09T10:29:20.764Z,12.30
2022-11-09T10:31:48.981Z,12.30
2022-11-09T10:34:35.965Z,12.20
2022-11-09T10:37:22.046Z,12.20
2022-11-09T10:39:55.301Z,12.20
2022-11-09T10:42:22.565Z,12.10
2022-11-09T10:44:49.550Z,12.20
2022-11-09T10:47:17.480Z,12.90
2022-11-09T10:49:44.722Z,13.80
2022-11-09T10:52:30.393Z,14.80
2022-11-09T10:55:17.505Z,15.60
2022-11-09T10:58:01.351Z,14.50
2022-11-09T11:00:28.638Z,14.40
2022-11-09T11:02:56.141Z,14.20
2022-11-09T11:05:27.116Z,14.20
2022-11-09T11:07:54.396Z,14.20
2022-11-09T11:10:21.792Z,13.80
2022-11-09T11:13:18.255Z,13.70
2022-11-09T11:15:45.631Z,14.00
2022-11-09T11:18:18.548Z,13.70
2022-11-09T11:20:45.750Z,13.30
2022-11-09T11:23:15.694Z,12.90
2022-11-09T11:25:54.867Z,12.60
2022-11-09T11:28:25.647Z,12.30
2022-11-09T11:30:52.915Z,12.30
2022-11-09T11:33:20.527Z,12.20
2022-11-09T11:35:58.489Z,12.30
2022-11-09T11:38:40.165Z,12.50
2022-11-09T11:41:10.420Z,12.60
2022-11-09T11:43:37.581Z,12.60
2022-11-09T11:46:15.288Z,12.40
2022-11-09T11:48:42.509Z,12.30
2022-11-09T11:51:09.454Z,12.20
2022-11-09T11:54:02.560Z,12.10
2022-11-09T11:56:32.399Z,12.00
2022-11-09T11:59:18.231Z,11.90
2022-11-09T12:02:02.702Z,11.80
2022-11-09T12:04:45.286Z,11.80
2022-11-09T12:07:24.496Z,11.80
2022-11-09T12:10:16.656Z,11.80
2022-11-09T12:13:02.478Z,11.80
2022-11-09T12:16:08.626Z,11.80
2022-11-09T12:18:54.360Z,11.90
2022-11-09T12:21:25.612Z,11.90
2022-11-09T12:24:07.382Z,11.90
2022-11-09T12:27:04.733Z,11.80
2022-11-09T12:29:55.457Z,11.90
2022-11-09T12:32:32.614Z,11.80
2022-11-09T12:35:18.373Z,11.80
2022-11-09T12:37:50.070Z,11.80
2022-11-09T12:40:17.336Z,11.80
2022-11-09T12:42:44.902Z,11.80
2022-11-09T12:45:23.097Z,11.70
2022-11-09T12:47:53.427Z,11.50
2022-11-09T12:50:22.256Z,11.50
2022-11-09T12:52:51.747Z,11.40
2022-11-09T12:55:20.462Z,11.40
2022-11-09T12:57:48.334Z,11.30
2022-11-09T13:00:34.104Z,11.20
2022-11-09T13:03:15.012Z,11.20
2022-11-09T13:05:43.379Z,11.10
2022-11-09T13:08:18.100Z,11.10
2022-11-09T13:10:45.323Z,11.10
2022-11-09T13:13:12.409Z,11.10
2022-11-09T13:15:40.255Z,11.10
2022-11-09T13:18:27.152Z,11.00
2022-11-09T13:20:56.605Z,11.00
2022-11-09T13:23:59.260Z,11.00
2022-11-09T13:26:32.919Z,10.90
2022-11-09T13:29:15.505Z,10.90
2022-11-09T13:32:02.460Z,10.90
2022-11-09T13:34:53.000Z,10.90
2022-11-09T13:37:32.779Z,10.80
2022-11-09T13:39:59.835Z,10.80
2022-11-09T13:42:30.404Z,10.80
2022-11-09T13:45:16.103Z,10.80
2022-11-09T13:47:50.739Z,10.90
2022-11-09T13:50:19.470Z,10.90
2022-11-09T13:52:49.095Z,10.70
2022-11-09T13:55:18.879Z,10.70
2022-11-09T13:57:46.556Z,10.80
2022-11-09T14:00:20.034Z,10.80
2022-11-09T14:02:54.263Z,10.70
2022-11-09T14:05:25.690Z,10.70
2022-11-09T14:07:53.887Z,10.70
2022-11-09T14:10:29.428Z,10.70
2022-11-09T14:13:14.068Z,10.70
2022-11-09T14:15:53.388Z,10.70
2022-11-09T14:18:32.648Z,10.70
2022-11-09T14:21:12.121Z,10.70
2022-11-09T14:23:39.353Z,10.60
2022-11-09T14:26:07.247Z,10.60
2022-11-09T14:28:35.456Z,10.60
2022-11-09T14:31:02.939Z,10.60
2022-11-09T14:33:33.124Z,10.50
2022-11-09T14:36:01.543Z,10.60
2022-11-09T14:38:31.910Z,10.60
2022-11-09T14:40:59.987Z,10.60
2022-11-09T14:43:29.672Z,10.60
2022-11-09T14:45:59.067Z,10.60
2022-11-09T14:48:27.366Z,10.60
2022-11-09T14:50:56.057Z,10.50
2022-11-09T14:53:26.703Z,10.50
2022-11-09T14:55:54.732Z,10.40
2022-11-09T14:58:22.761Z,10.40
2022-11-09T15:01:06.362Z,10.50
2022-11-09T15:03:33.727Z,10.40
2022-11-09T15:06:08.846Z,10.40
2022-11-09T15:08:37.871Z,10.40
2022-11-09T15:11:05.026Z,10.30
2022-11-09T15:13:34.136Z,10.30
2022-11-09T15:16:01.803Z,10.30
2022-11-09T15:18:33.785Z,10.30
2022-11-09T15:21:19.142Z,10.20
2022-11-09T15:23:47.483Z,10.20
2022-11-09T15:26:33.073Z,10.20
2022-11-09T15:29:00.527Z,10.20
2022-11-09T15:31:29.411Z,10.20
2022-11-09T15:33:57.264Z,10.10
2022-11-09T15:36:35.804Z,10.10
2022-11-09T15:39:12.188Z,10.10
2022-11-09T15:41:39.308Z,10.10
2022-11-09T15:44:07.395Z,10.10
2022-11-09T15:46:37.574Z,10.10
2022-11-09T15:49:24.620Z,10.10
2022-11-09T15:51:53.715Z,10.10
2022-11-09T15:54:21.843Z,10.10
2022-11-09T15:56:49.320Z,10.10
2022-11-09T15:59:21.554Z,10.00
2022-11-09T16:01:49.996Z,10.10
2022-11-09T16:04:17.402Z,10.10
2022-11-09T16:06:46.754Z,10.00
2022-11-09T16:09:14.387Z,10.00
2022-11-09T16:11:42.163Z,10.00
2022-11-09T16:14:09.402Z,10.00
2022-11-09T16:16:36.515Z,10.00
2022-11-09T16:19:03.578Z,10.00
2022-11-09T16:21:30.779Z,10.00
2022-11-09T16:23:58.928Z,10.00
2022-11-09T16:26:26.203Z,10.10
2022-11-09T16:28:54.428Z,10.10
2022-11-09T16:31:41.143Z,10.00
2022-11-09T16:34:08.783Z,10.00
2022-11-09T16:36:38.926Z,10.00
2022-11-09T16:39:12.916Z,10.00
2022-11-09T16:41:41.157Z,9.90
2022-11-09T16:44:08.420Z,9.90
2022-11-09T16:46:35.873Z,9.80
2022-11-09T16:49:03.686Z,9.80
2022-11-09T16:51:31.252Z,9.80
2022-11-09T16:53:58.367Z,9.70
2022-11-09T16:56:25.711Z,9.70
2022-11-09T16:58:52.901Z,9.60
2022-11-09T17:01:23.701Z,9.60
2022-11-09T17:03:51.029Z,9.60
2022-11-09T17:06:18.219Z,9.60
2022-11-09T17:08:45.399Z,9.50
2022-11-09T17:11:13.667Z,9.50
2022-11-09T17:13:41.074Z,9.50
2022-11-09T17:16:09.888Z,9.60
2022-11-09T17:18:38.160Z,9.60
2022-11-09T17:21:10.214Z,9.50
2022-11-09T17:23:37.626Z,9.50
2022-11-09T17:26:05.968Z,9.60
2022-11-09T17:28:33.630Z,9.60
2022-11-09T17:31:01.373Z,9.60
2022-11-09T17:33:30.308Z,9.50
2022-11-09T17:36:02.548Z,9.50
2022-11-09T17:38:30.417Z,9.50
2022-11-09T17:41:11.201Z,9.60
2022-11-09T17:43:39.115Z,9.60
2022-11-09T17:46:13.601Z,9.60
2022-11-09T17:48:41.605Z,9.60
2022-11-09T17:51:09.448Z,9.60
2022-11-09T17:53:36.801Z,9.70
2022-11-09T17:56:04.519Z,9.70
2022-11-09T17:58:31.982Z,9.80
2022-11-09T18:01:09.010Z,9.70
2022-11-09T18:03:36.655Z,9.70
2022-11-09T18:06:04.330Z,9.70
2022-11-09T18:08:31.454Z,9.70
2022-11-09T18:11:01.588Z,9.70
2022-11-09T18:13:28.764Z,9.70
2022-11-09T18:15:56.205Z,9.70
2022-11-09T18:18:24.033Z,9.80
2022-11-09T18:20:51.298Z,9.70
2022-11-09T18:23:18.502Z,9.70
2022-11-09T18:25:55.590Z,9.70
2022-11-09T18:28:23.095Z,9.70
2022-11-09T18:30:50.354Z,9.70
2022-11-09T18:33:17.679Z,9.70
2022-11-09T18:35:44.954Z,9.60
2022-11-09T18:38:13.313Z,9.60
2022-11-09T18:40:40.715Z,9.60
2022-11-09T18:43:07.797Z,9.70
2022-11-09T18:45:35.230Z,9.60
2022-11-09T18:48:02.601Z,9.60
2022-11-09T18:50:29.705Z,9.60
2022-11-09T18:52:57.288Z,9.60
2022-11-09T18:55:24.851Z,9.50
2022-11-09T18:57:51.981Z,9.50
2022-11-09T19:00:19.395Z,9.50
2022-11-09T19:02:46.570Z,9.40
2022-11-09T19:05:13.794Z,9.40
2022-11-09T19:07:40.932Z,9.40
2022-11-09T19:10:08.822Z,9.50
2022-11-09T19:12:35.937Z,9.40
2022-11-09T19:15:03.247Z,9.40
2022-11-09T19:17:30.498Z,9.40
2022-11-09T19:19:57.781Z,9.30
2022-11-09T19:22:27.476Z,9.30
2022-11-09T19:24:54.729Z,9.30
2022-11-09T19:27:22.758Z,9.30
2022-11-09T19:29:50.038Z,9.30
2022-11-09T19:32:17.216Z,9.20
2022-11-09T19:34:47.115Z,9.20
2022-11-09T19:37:14.789Z,9.20
2022-11-09T19:39:45.447Z,9.10
2022-11-09T19:42:13.312Z,9.10
2022-11-09T19:44:41.214Z,9.10
2022-11-09T19:47:09.351Z,9.10
2022-11-09T19:49:37.147Z,9.10
2022-11-09T19:52:04.412Z,9.00
2022-11-09T19:54:31.601Z,9.00
2022-11-09T19:56:58.840Z,9.00
2022-11-09T19:59:26.108Z,9.00
2022-11-09T20:01:53.155Z,9.00
2022-11-09T20:04:20.379Z,9.00
2022-11-09T20:06:47.648Z,9.00
2022-11-09T20:09:14.832Z,9.00
2022-11-09T20:12:12.362Z,8.90
2022-11-09T20:14:39.616Z,9.00
2022-11-09T20:17:06.994Z,9.00
2022-11-09T20:19:34.115Z,8.90
2022-11-09T20:22:01.218Z,8.90
2022-11-09T20:24:28.814Z,8.90
2022-11-09T20:26:56.654Z,9.00
2022-11-09T20:29:24.309Z,8.90
2022-11-09T20:31:51.594Z,8.90
2022-11-09T20:34:18.793Z,8.90
2022-11-09T20:36:48.207Z,8.90
2022-11-09T20:39:15.969Z,8.90
2022-11-09T20:41:44.392Z,8.90
2022-11-09T20:44:11.518Z,9.00
2022-11-09T20:46:39.838Z,9.00
2022-11-09T20:49:07.084Z,9.00
2022-11-09T20:51:35.290Z,9.00
2022-11-09T20:54:06.862Z,9.00
2022-11-09T20:56:34.851Z,9.00
2022-11-09T20:59:01.941Z,9.00
2022-11-09T21:01:29.753Z,9.00
2022-11-09T21:03:57.285Z,9.00
2022-11-09T21:06:24.428Z,9.00
2022-11-09T21:08:52.896Z,9.00
2022-11-09T21:11:20.527Z,9.10
2022-11-09T21:13:51.893Z,9.00
2022-11-09T21:16:20.436Z,9.10
2022-11-09T21:18:47.866Z,9.10
2022-11-09T21:21:19.490Z,9.10
2022-11-09T21:24:04.835Z,9.10
2022-11-09T21:26:50.737Z,9.10
2022-11-09T21:29:37.876Z,9.10
2022-11-09T21:32:05.546Z,9.10
2022-11-09T21:34:36.493Z,9.10
2022-11-09T21:37:04.277Z,9.10
2022-11-09T21:39:31.751Z,9.10
2022-11-09T21:41:59.127Z,9.10
2022-11-09T21:44:27.999Z,9.10
2022-11-09T21:46:55.134Z,9.10
2022-11-09T21:49:22.230Z,9.10
2022-11-09T21:51:49.315Z,9.10
2022-11-09T21:54:16.452Z,9.10
2022-11-09T21:56:43.445Z,9.10
2022-11-09T21:59:10.789Z,9.10
2022-11-09T22:01:38.396Z,9.10
2022-11-09T22:04:05.658Z,9.10
2022-11-09T22:06:34.315Z,9.10
2022-11-09T22:09:01.470Z,9.10
2022-11-09T22:11:47.192Z,9.10
2022-11-09T22:14:34.290Z,9.10
2022-11-09T22:17:01.729Z,9.10
2022-11-09T22:19:47.447Z,9.10
2022-11-09T22:22:14.875Z,9.10
2022-11-09T22:24:42.507Z,9.10
2022-11-09T22:27:09.757Z,9.10
2022-11-09T22:29:37.129Z,9.10
2022-11-09T22:32:04.485Z,9.10
2022-11-09T22:34:31.618Z,9.10
2022-11-09T22:36:58.732Z,9.10
2022-11-09T22:39:25.779Z,9.10
2022-11-09T22:41:52.759Z,9.10
2022-11-09T22:44:19.836Z,9.10
2022-11-09T22:46:47.807Z,9.00
2022-11-09T22:49:15.135Z,9.00
2022-11-09T22:51:42.169Z,9.10
2022-11-09T22:54:09.381Z,9.00
2022-11-09T22:56:36.560Z,9.00
2022-11-09T22:59:03.871Z,9.00
2022-11-09T23:01:31.062Z,9.00
2022-11-09T23:03:58.216Z,9.00
2022-11-09T23:06:25.644Z,9.00
2022-11-09T23:08:52.802Z,9.00
2022-11-09T23:11:21.937Z,9.00
2022-11-09T23:13:53.107Z,9.00
2022-11-09T23:16:20.854Z,9.00
2022-11-09T23:18:54.587Z,9.00
2022-11-09T23:21:23.039Z,9.00
2022-11-09T23:23:50.945Z,9.00
2022-11-09T23:26:18.072Z,9.00
2022-11-09T23:28:45.248Z,9.00
2022-11-09T23:31:15.192Z,9.10
2022-11-09T23:33:42.427Z,9.00
2022-11-09T23:36:10.215Z,9.00
2022-11-09T23:38:38.145Z,9.10
2022-11-09T23:41:06.371Z,9.10
2022-11-09T23:43:33.965Z,9.10
2022-11-09T23:46:05.691Z,9.10
2022-11-09T23:48:33.270Z,9.10
2022-11-09T23:51:00.947Z,9.10
2022-11-09T23:53:28.724Z,9.10
2022-11-09T23:55:59.793Z,9.10
2022-11-09T23:58:26.863Z,9.10
